createdAt,value
2019-04-05T00:00:07.488Z,16.47
2019-04-05T00:02:35.932Z,14.40
2019-04-05T00:05:06.501Z,15.03
2019-04-05T00:07:35.006Z,16.10
2019-04-05T00:10:04.412Z,16.70
2019-04-05T00:12:32.851Z,16.20
2019-04-05T00:15:14.266Z,16.20
2019-04-05T00:17:31.435Z,16.07
2019-04-05T00:19:59.869Z,16.47
2019-04-05T00:22:28.326Z,15.03
2019-04-05T00:24:56.748Z,14.93
2019-04-05T00:27:25.195Z,16.77
2019-04-05T00:29:53.623Z,15.77
2019-04-05T00:32:22.063Z,15.50
2019-04-05T00:34:50.517Z,15.40
2019-04-05T00:37:18.969Z,16.30
2019-04-05T00:39:47.395Z,14.43
2019-04-05T00:42:15.880Z,16.27
2019-04-05T00:44:44.309Z,16.33
2019-04-05T00:47:12.760Z,16.23
2019-04-05T00:49:41.188Z,16.70
2019-04-05T00:52:09.626Z,17.70
2019-04-05T00:54:38.123Z,18.03
2019-04-05T00:57:06.616Z,17.00
2019-04-05T00:59:35.151Z,17.93
2019-04-05T01:02:03.762Z,16.93
2019-04-05T01:04:32.199Z,18.13
2019-04-05T01:07:00.634Z,18.63
2019-04-05T01:09:29.067Z,18.30
2019-04-05T01:11:57.503Z,19.13
2019-04-05T01:17:54.804Z,18.67
2019-04-05T01:20:24.880Z,19.87
2019-04-05T01:22:53.967Z,20.50
2019-04-05T01:25:22.667Z,21.20
2019-04-05T01:27:51.181Z,18.67
2019-04-05T01:30:19.788Z,20.27
2019-04-05T01:32:48.232Z,20.03
2019-04-05T01:35:16.675Z,20.50
2019-04-05T01:37:45.871Z,20.03
2019-04-05T01:40:14.635Z,18.57
2019-04-05T01:42:43.670Z,19.63
2019-04-05T01:45:13.439Z,19.47
2019-04-05T01:47:41.871Z,18.10
2019-04-05T01:50:10.937Z,18.57
2019-04-05T01:52:39.718Z,18.97
2019-04-05T01:55:09.216Z,19.03
2019-04-05T01:57:37.660Z,17.90
2019-04-05T02:00:09.180Z,18.30
2019-04-05T02:02:37.601Z,19.50
2019-04-05T02:05:08.156Z,18.87
2019-04-05T02:07:37.438Z,19.20
2019-04-05T02:10:08.369Z,19.07
2019-04-05T02:12:37.000Z,19.77
2019-04-05T02:15:09.521Z,19.10
2019-04-05T02:17:38.287Z,18.70
2019-04-05T02:20:08.570Z,19.10
2019-04-05T02:22:37.060Z,20.60
2019-04-05T02:25:06.859Z,18.93
2019-04-05T02:27:35.350Z,17.73
2019-04-05T02:30:05.767Z,18.40
2019-04-05T02:32:34.202Z,18.07
2019-04-05T02:35:02.699Z,17.67
2019-04-05T02:37:31.130Z,17.87
2019-04-05T02:39:59.567Z,16.80
2019-04-05T02:42:29.239Z,17.13
2019-04-05T02:44:58.209Z,17.10
2019-04-05T02:47:26.884Z,16.57
2019-04-05T02:49:57.076Z,19.53
2019-04-05T02:52:26.767Z,17.00
2019-04-05T02:54:55.643Z,17.20
2019-04-05T02:57:24.541Z,15.03
2019-04-05T02:59:54.023Z,16.93
2019-04-05T03:02:22.829Z,15.87
2019-04-05T03:04:51.349Z,16.60
2019-04-05T03:07:19.838Z,15.30
2019-04-05T03:09:49.040Z,16.40
2019-04-05T03:12:19.240Z,16.10
2019-04-05T03:14:48.110Z,14.20
2019-04-05T03:17:17.328Z,14.20
2019-04-05T03:19:47.053Z,16.13
2019-04-05T03:22:15.928Z,17.03
2019-04-05T03:24:46.167Z,18.47
2019-04-05T03:27:17.955Z,17.67
2019-04-05T03:29:46.766Z,18.40
2019-04-05T03:32:15.735Z,19.73
2019-04-05T03:34:44.420Z,23.03
2019-04-05T03:37:13.535Z,22.03
2019-04-05T03:39:42.663Z,20.67
2019-04-05T03:42:11.517Z,20.33
2019-04-05T03:44:40.138Z,20.53
2019-04-05T03:47:09.012Z,22.90
2019-04-05T03:49:37.551Z,21.50
2019-04-05T03:52:06.376Z,21.37
2019-04-05T03:54:35.163Z,21.00
2019-04-05T03:57:04.267Z,22.00
2019-04-05T03:59:32.772Z,22.80
2019-04-05T04:02:01.323Z,23.73
2019-04-05T04:04:30.287Z,22.43
2019-04-05T04:06:58.808Z,21.63
2019-04-05T04:09:27.467Z,21.17
2019-04-05T04:11:55.977Z,22.17
2019-04-05T04:14:24.487Z,21.20
2019-04-05T04:16:53.570Z,21.00
2019-04-05T04:19:22.151Z,20.57
2019-04-05T04:21:59.208Z,20.23
2019-04-05T04:24:27.714Z,21.20
2019-04-05T04:26:56.591Z,20.53
2019-04-05T04:29:25.025Z,21.60
2019-04-05T04:31:53.711Z,20.17
2019-04-05T04:34:22.353Z,21.73
2019-04-05T04:36:51.082Z,20.40
2019-04-05T04:39:20.520Z,19.93
2019-04-05T04:41:49.531Z,20.43
2019-04-05T04:44:18.906Z,19.77
2019-04-05T04:46:48.233Z,20.53
2019-04-05T04:49:16.984Z,20.60
2019-04-05T04:51:45.863Z,20.60
2019-04-05T04:54:14.536Z,20.70
2019-04-05T04:56:43.120Z,20.23
2019-04-05T04:59:11.631Z,20.53
2019-04-05T05:01:40.323Z,20.63
2019-04-05T05:04:09.014Z,19.80
2019-04-05T05:06:37.720Z,20.10
2019-04-05T05:09:07.506Z,18.57
2019-04-05T05:11:36.415Z,18.90
2019-04-05T05:14:05.014Z,20.37
2019-04-05T05:16:33.617Z,23.20
2019-04-05T05:19:02.096Z,19.80
2019-04-05T05:21:30.635Z,18.67
2019-04-05T05:23:59.414Z,17.40
2019-04-05T05:26:28.089Z,19.30
2019-04-05T05:28:56.870Z,18.77
2019-04-05T05:31:25.539Z,18.00
2019-04-05T05:33:54.165Z,18.50
2019-04-05T05:36:22.849Z,17.50
2019-04-05T05:38:51.434Z,17.37
2019-04-05T05:41:19.876Z,17.33
2019-04-05T05:43:48.410Z,18.00
2019-04-05T05:46:16.851Z,16.47
2019-04-05T05:48:45.300Z,17.33
2019-04-05T05:51:14.576Z,15.40
2019-04-05T05:53:43.391Z,16.63
2019-04-05T05:56:11.822Z,18.10
2019-04-05T05:58:40.348Z,16.30
2019-04-05T06:01:08.810Z,18.43
2019-04-05T06:03:37.239Z,17.47
2019-04-05T06:06:05.691Z,18.47
2019-04-05T06:08:34.143Z,16.63
2019-04-05T06:11:02.944Z,17.40
2019-04-05T06:13:31.382Z,17.47
2019-04-05T06:15:59.841Z,18.10
2019-04-05T06:18:28.278Z,15.70
2019-04-05T06:20:56.720Z,16.13
2019-04-05T06:23:33.734Z,17.17
2019-04-05T06:25:55.337Z,15.30
2019-04-05T06:28:23.787Z,16.53
2019-04-05T06:30:52.297Z,16.50
2019-04-05T06:33:30.926Z,17.90
2019-04-05T06:35:50.884Z,17.80
2019-04-05T06:38:19.335Z,16.50
2019-04-05T06:40:47.782Z,16.70
2019-04-05T06:43:16.285Z,16.43
2019-04-05T06:45:45.692Z,16.67
2019-04-05T06:48:19.350Z,15.90
2019-04-05T06:50:47.152Z,17.00
2019-04-05T06:53:14.530Z,17.57
2019-04-05T06:55:42.951Z,16.70
2019-04-05T06:58:11.394Z,15.80
2019-04-05T07:00:39.830Z,16.23
2019-04-05T07:03:08.444Z,17.33
2019-04-05T07:05:36.949Z,17.53
2019-04-05T07:08:05.406Z,17.27
2019-04-05T07:10:33.876Z,17.33
2019-04-05T07:13:02.452Z,16.57
2019-04-05T07:15:30.972Z,17.80
2019-04-05T07:17:59.490Z,18.03
2019-04-05T07:20:27.932Z,17.40
2019-04-05T07:22:56.380Z,17.83
2019-04-05T07:25:24.824Z,17.87
2019-04-05T07:27:53.292Z,18.13
2019-04-05T07:30:21.877Z,18.10
2019-04-05T07:32:50.318Z,17.37
2019-04-05T07:35:18.751Z,18.57
2019-04-05T07:37:47.203Z,17.83
2019-04-05T07:40:16.763Z,16.93
2019-04-05T07:42:45.294Z,18.97
2019-04-05T07:45:14.014Z,17.33
2019-04-05T07:47:42.450Z,17.60
2019-04-05T07:50:10.908Z,17.57
2019-04-05T07:52:39.334Z,18.60
2019-04-05T07:55:07.986Z,16.77
2019-04-05T07:57:37.287Z,18.37
2019-04-05T08:00:27.983Z,17.83
2019-04-05T08:02:56.441Z,15.70
2019-04-05T08:05:24.869Z,18.50
2019-04-05T08:07:54.248Z,18.20
2019-04-05T08:10:22.944Z,16.70
2019-04-05T08:12:51.943Z,16.93
2019-04-05T08:15:20.376Z,15.93
2019-04-05T08:17:48.803Z,17.53
2019-04-05T08:20:17.269Z,17.03
2019-04-05T08:22:45.715Z,16.43
2019-04-05T08:25:14.184Z,19.70
2019-04-05T08:27:42.633Z,18.17
2019-04-05T08:30:11.132Z,21.83
2019-04-05T08:32:39.557Z,18.07
2019-04-05T08:35:08.080Z,16.83
2019-04-05T08:37:36.518Z,17.37
2019-04-05T08:40:06.504Z,17.53
2019-04-05T08:42:34.940Z,16.63
2019-04-05T08:45:03.557Z,16.60
2019-04-05T08:47:32.967Z,16.90
2019-04-05T08:50:01.412Z,16.57
2019-04-05T08:52:29.866Z,16.40
2019-04-05T08:54:58.367Z,17.97
2019-04-05T08:57:26.801Z,17.87
2019-04-05T08:59:55.259Z,16.70
2019-04-05T09:02:23.688Z,18.17
2019-04-05T09:04:52.163Z,17.93
2019-04-05T09:07:20.600Z,19.23
2019-04-05T09:09:49.060Z,16.50
2019-04-05T09:12:17.512Z,16.60
2019-04-05T09:14:46.035Z,18.13
2019-04-05T09:17:14.482Z,17.90
2019-04-05T09:19:42.918Z,17.93
2019-04-05T09:22:11.344Z,22.10
2019-04-05T09:24:39.807Z,19.23
2019-04-05T09:27:08.234Z,18.53
2019-04-05T09:29:36.680Z,18.30
2019-04-05T09:32:05.191Z,17.30
2019-04-05T09:34:33.634Z,18.40
2019-04-05T09:37:03.147Z,17.67
2019-04-05T09:39:31.595Z,19.60
2019-04-05T09:42:00.045Z,20.33
2019-04-05T09:44:28.547Z,20.30
2019-04-05T09:46:56.988Z,18.57
2019-04-05T09:49:36.244Z,19.77
2019-04-05T09:51:55.585Z,18.13
2019-04-05T09:54:24.034Z,18.73
2019-04-05T09:56:52.628Z,19.67
2019-04-05T09:59:21.063Z,17.80
2019-04-05T10:01:49.518Z,17.30
2019-04-05T10:04:18.031Z,18.57
2019-04-05T10:06:46.477Z,17.97
2019-04-05T10:09:14.999Z,19.40
2019-04-05T10:11:43.448Z,17.87
2019-04-05T10:14:11.878Z,18.03
2019-04-05T10:16:40.339Z,17.83
2019-04-05T10:19:08.796Z,19.07
2019-04-05T10:21:37.311Z,20.40
2019-04-05T10:24:05.830Z,19.63
2019-04-05T10:26:34.291Z,19.37
2019-04-05T10:29:02.737Z,17.97
2019-04-05T10:31:31.193Z,17.50
2019-04-05T10:33:59.644Z,18.10
2019-04-05T10:36:28.092Z,19.47
2019-04-05T10:38:56.516Z,17.33
2019-04-05T10:41:24.983Z,15.77
2019-04-05T10:43:53.407Z,17.27
2019-04-05T10:46:21.860Z,15.53
2019-04-05T10:48:50.297Z,16.33
2019-04-05T10:51:18.754Z,18.43
2019-04-05T10:53:47.197Z,18.40
2019-04-05T10:56:15.633Z,18.00
2019-04-05T10:58:44.152Z,18.43
2019-04-05T11:01:12.584Z,16.70
2019-04-05T11:03:41.041Z,16.00
2019-04-05T11:06:09.541Z,18.40
2019-04-05T11:08:38.075Z,17.13
2019-04-05T11:11:06.524Z,17.07
2019-04-05T11:13:34.961Z,16.50
2019-04-05T11:16:04.222Z,15.40
2019-04-05T11:18:33.556Z,14.50
2019-04-05T11:21:02.083Z,15.57
2019-04-05T11:23:30.535Z,14.67
2019-04-05T11:25:58.986Z,15.43
2019-04-05T11:28:27.440Z,15.83
2019-04-05T11:30:55.877Z,14.17
2019-04-05T11:33:24.400Z,11.97
2019-04-05T11:35:52.849Z,12.93
2019-04-05T11:38:24.239Z,15.10
2019-04-05T11:40:52.732Z,14.27
2019-04-05T11:43:26.205Z,14.23
2019-04-05T11:45:53.716Z,16.60
2019-04-05T11:48:22.384Z,12.80
2019-04-05T11:50:50.817Z,16.70
2019-04-05T11:53:21.890Z,16.00
2019-04-05T11:55:49.427Z,14.30
2019-04-05T11:58:17.863Z,17.83
2019-04-05T12:00:50.645Z,16.00
2019-04-05T12:03:20.724Z,16.83
2019-04-05T12:05:49.174Z,13.77
2019-04-05T12:08:17.609Z,16.13
2019-04-05T12:10:46.060Z,15.13
2019-04-05T12:13:14.495Z,14.53
2019-04-05T12:15:42.948Z,12.87
2019-04-05T12:18:11.382Z,14.60
2019-04-05T12:20:49.550Z,13.60
2019-04-05T12:23:10.073Z,13.33
2019-04-05T12:25:38.515Z,12.13
2019-04-05T12:28:10.436Z,11.60
2019-04-05T12:30:38.304Z,11.70
2019-04-05T12:33:14.031Z,13.80
2019-04-05T12:35:37.681Z,13.80
2019-04-05T12:38:07.156Z,13.30
2019-04-05T12:40:35.658Z,14.37
2019-04-05T12:43:04.102Z,12.90
2019-04-05T12:45:32.543Z,13.40
2019-04-05T12:48:00.974Z,14.20
2019-04-05T12:50:29.439Z,12.73
2019-04-05T12:52:57.882Z,13.40
2019-04-05T12:55:26.356Z,14.23
2019-04-05T12:57:56.222Z,12.30
2019-04-05T13:00:25.950Z,13.20
2019-04-05T13:02:56.967Z,13.37
2019-04-05T13:05:25.113Z,13.60
2019-04-05T13:07:53.564Z,11.40
2019-04-05T13:10:25.165Z,13.47
2019-04-05T13:12:52.234Z,14.00
2019-04-05T13:15:20.679Z,12.67
2019-04-05T13:17:49.124Z,13.00
2019-04-05T13:20:17.827Z,13.37
2019-04-05T13:22:46.252Z,13.47
2019-04-05T13:25:14.773Z,14.13
2019-04-05T13:27:43.212Z,13.40
2019-04-05T13:30:12.307Z,15.93
2019-04-05T13:32:40.753Z,11.27
2019-04-05T13:35:09.435Z,14.90
2019-04-05T13:37:37.932Z,15.47
2019-04-05T13:40:09.598Z,15.33
2019-04-05T13:42:38.167Z,15.97
2019-04-05T13:45:08.195Z,10.20
2019-04-05T13:47:38.850Z,16.10
2019-04-05T13:50:10.839Z,14.87
2019-04-05T13:52:41.456Z,12.20
2019-04-05T13:55:10.466Z,14.53
2019-04-05T13:57:38.429Z,14.73
2019-04-05T14:00:10.122Z,17.03
2019-04-05T14:02:38.563Z,18.10
2019-04-05T14:05:07.315Z,18.33
2019-04-05T14:07:35.799Z,14.97
2019-04-05T14:10:10.534Z,17.63
2019-04-05T14:12:40.299Z,16.40
2019-04-05T14:15:10.683Z,17.63
2019-04-05T14:17:38.623Z,15.40
2019-04-05T14:20:09.071Z,16.97
2019-04-05T14:22:37.890Z,16.47
2019-04-05T14:25:08.102Z,16.13
2019-04-05T14:27:36.599Z,16.80
2019-04-05T14:30:06.677Z,17.90
2019-04-05T14:32:35.128Z,19.13
2019-04-05T14:35:07.552Z,17.77
2019-04-05T14:37:34.927Z,18.23
2019-04-05T14:40:05.225Z,17.43
2019-04-05T14:42:33.653Z,18.90
2019-04-05T14:45:02.080Z,16.20
2019-04-05T14:47:30.536Z,18.27
2019-04-05T14:50:00.910Z,18.80
2019-04-05T14:52:31.227Z,19.53
2019-04-05T14:55:00.098Z,19.10
2019-04-05T14:57:29.029Z,19.30
2019-04-05T14:59:57.470Z,19.80
2019-04-05T15:02:25.937Z,19.00
2019-04-05T15:04:54.373Z,17.30
2019-04-05T15:07:22.844Z,18.70
2019-04-05T15:09:54.776Z,18.87
2019-04-05T15:12:21.515Z,17.83
2019-04-05T15:14:49.930Z,16.80
2019-04-05T15:17:18.400Z,19.97
2019-04-05T15:19:46.833Z,19.40
2019-04-05T15:22:15.298Z,18.20
2019-04-05T15:24:44.581Z,20.00
2019-04-05T15:27:13.955Z,19.00
2019-04-05T15:29:42.405Z,19.03
2019-04-05T15:32:10.947Z,21.20
2019-04-05T15:34:39.449Z,20.13
2019-04-05T15:37:07.896Z,19.43
2019-04-05T15:39:36.319Z,19.27
2019-04-05T15:42:04.899Z,20.47
2019-04-05T15:44:33.341Z,18.87
2019-04-05T15:47:01.800Z,11.37
2019-04-05T15:49:30.247Z,19.73
2019-04-05T15:51:58.995Z,19.17
2019-04-05T15:54:29.064Z,19.10
2019-04-05T15:56:57.766Z,21.73
2019-04-05T15:59:26.198Z,20.93
2019-04-05T16:01:54.711Z,22.13
2019-04-05T16:04:23.593Z,16.77
2019-04-05T16:06:52.045Z,20.10
2019-04-05T16:09:20.955Z,19.20
2019-04-05T16:11:49.410Z,20.37
2019-04-05T16:14:17.863Z,20.13
2019-04-05T16:16:46.307Z,20.77
2019-04-05T16:19:14.743Z,21.10
2019-04-05T16:21:43.204Z,19.67
2019-04-05T16:24:11.643Z,15.17
2019-04-05T16:26:40.094Z,20.63
2019-04-05T16:29:08.519Z,20.70
2019-04-05T16:31:36.986Z,21.40
2019-04-05T16:34:05.994Z,20.30
2019-04-05T16:36:34.455Z,20.73
2019-04-05T16:39:04.616Z,21.27
2019-04-05T16:41:33.065Z,21.93
2019-04-05T16:44:01.505Z,22.17
2019-04-05T16:46:29.932Z,21.07
2019-04-05T16:48:58.394Z,22.10
2019-04-05T16:51:26.897Z,21.87
2019-04-05T16:53:59.157Z,20.73
2019-04-05T16:56:27.938Z,19.83
2019-04-05T16:58:57.059Z,21.33
2019-04-05T17:01:27.420Z,22.67
2019-04-05T17:03:56.805Z,22.20
2019-04-05T17:06:25.249Z,21.83
2019-04-05T17:08:53.686Z,23.40
2019-04-05T17:11:22.120Z,21.73
2019-04-05T17:13:50.572Z,21.47
2019-04-05T17:16:19.038Z,20.70
2019-04-05T17:18:47.483Z,22.07
2019-04-05T17:21:16.898Z,21.83
2019-04-05T17:23:45.359Z,21.23
2019-04-05T17:26:13.807Z,23.63
2019-04-05T17:28:42.251Z,20.93
2019-04-05T17:31:10.687Z,23.07
2019-04-05T17:33:39.232Z,20.93
2019-04-05T17:36:07.685Z,21.27
2019-04-05T17:38:36.139Z,21.37
2019-04-05T17:41:04.580Z,20.27
2019-04-05T17:43:33.031Z,21.33
2019-04-05T17:46:01.455Z,21.10
2019-04-05T17:48:29.906Z,20.57
2019-04-05T17:50:58.343Z,22.83
2019-04-05T17:53:26.802Z,22.77
2019-04-05T17:55:55.577Z,21.10
2019-04-05T17:58:26.662Z,20.43
2019-04-05T18:00:55.108Z,20.10
2019-04-05T18:03:23.668Z,19.90
2019-04-05T18:05:52.153Z,19.80
2019-04-05T18:08:20.613Z,20.93
2019-04-05T18:10:49.041Z,20.83
2019-04-05T18:13:17.499Z,21.40
2019-04-05T18:15:52.396Z,20.13
2019-04-05T18:18:16.106Z,19.40
2019-04-05T18:20:44.570Z,21.73
2019-04-05T18:23:24.430Z,22.80
2019-04-05T18:25:43.242Z,22.40
2019-04-05T18:28:11.705Z,20.40
2019-04-05T18:30:40.157Z,21.37
2019-04-05T18:33:08.616Z,18.60
2019-04-05T18:35:37.065Z,18.27
2019-04-05T18:38:05.504Z,20.40
2019-04-05T18:40:39.846Z,17.87
2019-04-05T18:43:04.307Z,18.10
2019-04-05T18:45:33.699Z,19.90
2019-04-05T18:48:02.303Z,18.80
2019-04-05T18:50:30.881Z,18.73
2019-04-05T18:52:59.341Z,19.13
2019-04-05T18:55:27.867Z,19.97
2019-04-05T18:57:56.309Z,20.60
2019-04-05T19:00:25.683Z,19.77
2019-04-05T19:02:54.131Z,21.77
2019-04-05T19:05:22.570Z,24.10
2019-04-05T19:07:51.004Z,23.23
2019-04-05T19:10:19.468Z,23.60
2019-04-05T19:12:47.966Z,23.80
2019-04-05T19:15:16.606Z,22.33
2019-04-05T19:17:45.097Z,21.20
2019-04-05T19:20:13.681Z,23.13
2019-04-05T19:22:42.122Z,21.37
2019-04-05T19:25:10.646Z,22.27
2019-04-05T19:27:39.089Z,23.87
2019-04-05T19:50:10.421Z,24.20
2019-04-05T19:52:38.865Z,23.87
2019-04-05T19:55:07.789Z,24.47
2019-04-05T19:57:36.219Z,21.43
2019-04-05T20:00:06.995Z,23.73
2019-04-05T20:02:35.449Z,25.60
2019-04-05T20:05:05.825Z,25.40
2019-04-05T20:07:34.257Z,24.47
2019-04-05T20:10:02.710Z,23.77
2019-04-05T20:12:31.159Z,23.30
2019-04-05T20:14:59.626Z,22.70
2019-04-05T20:17:28.066Z,21.30
2019-04-05T20:19:56.518Z,24.17
2019-04-05T20:22:25.019Z,23.90
2019-04-05T20:24:53.468Z,23.13
2019-04-05T20:27:21.915Z,23.93
2019-04-05T20:29:50.382Z,23.27
2019-04-05T20:32:18.810Z,23.50
2019-04-05T20:34:47.256Z,22.57
2019-04-05T20:37:15.699Z,23.80
2019-04-05T20:39:44.143Z,21.47
2019-04-05T20:42:12.591Z,21.00
2019-04-05T20:44:41.048Z,23.03
2019-04-05T20:47:09.554Z,21.07
2019-04-05T20:49:38.033Z,21.50
2019-04-05T20:52:06.489Z,20.97
2019-04-05T20:54:34.948Z,22.50
2019-04-05T20:57:03.397Z,23.00
2019-04-05T20:59:31.844Z,22.40
2019-04-05T21:02:00.308Z,23.07
2019-04-05T21:04:28.733Z,23.80
2019-04-05T21:06:57.186Z,21.67
2019-04-05T21:09:25.614Z,23.10
2019-04-05T21:11:54.075Z,22.50
2019-04-05T21:14:22.510Z,22.57
2019-04-05T21:16:50.959Z,21.87
2019-04-05T21:19:19.414Z,23.37
2019-04-05T21:21:47.929Z,23.03
2019-04-05T21:24:16.368Z,22.80
2019-04-05T21:26:44.831Z,21.47
2019-04-05T21:29:13.306Z,23.63
2019-04-05T21:31:41.753Z,22.37
2019-04-05T21:34:10.244Z,22.77
2019-04-05T21:36:38.697Z,22.93
2019-04-05T21:39:07.875Z,20.47
2019-04-05T21:41:36.307Z,22.33
2019-04-05T21:44:04.848Z,23.03
2019-04-05T21:46:34.130Z,24.60
2019-04-05T21:49:02.585Z,26.20
2019-04-05T21:51:31.702Z,25.77
2019-04-05T21:54:00.173Z,25.83
2019-04-05T21:56:28.673Z,24.17
2019-04-05T21:58:57.233Z,24.60
2019-04-05T22:01:27.008Z,23.80
2019-04-05T22:03:55.633Z,23.70
2019-04-05T22:06:24.127Z,20.63
2019-04-05T22:08:52.582Z,21.65
2019-04-05T22:11:21.026Z,21.60
2019-04-05T22:13:49.481Z,20.77
2019-04-05T22:16:17.903Z,22.90
2019-04-05T22:18:46.368Z,20.83
2019-04-05T22:21:14.801Z,22.00
2019-04-05T22:23:43.251Z,22.00
2019-04-05T22:26:11.683Z,21.53
2019-04-05T22:28:40.190Z,22.40
2019-04-05T22:31:08.668Z,22.23
2019-04-05T22:33:37.281Z,22.07
2019-04-05T22:36:05.702Z,21.43
2019-04-05T22:38:34.166Z,20.63
2019-04-05T22:41:02.613Z,20.67
2019-04-05T22:43:31.071Z,22.40
2019-04-05T22:45:59.514Z,22.03
2019-04-05T22:48:27.968Z,22.03
2019-04-05T22:50:56.407Z,22.50
2019-04-05T22:53:24.867Z,23.03
2019-04-05T22:55:53.312Z,27.67
2019-04-05T22:58:21.809Z,32.87
2019-04-05T23:00:50.261Z,34.50
2019-04-05T23:03:18.719Z,27.37
2019-04-05T23:05:47.160Z,24.60
2019-04-05T23:08:15.615Z,25.60
2019-04-05T23:10:44.056Z,31.17
2019-04-05T23:13:12.511Z,32.20
2019-04-05T23:15:40.935Z,26.83
2019-04-05T23:18:09.397Z,33.40
2019-04-05T23:20:37.830Z,29.47
2019-04-05T23:23:06.292Z,27.73
2019-04-05T23:25:34.812Z,24.60
2019-04-05T23:28:03.268Z,22.27
2019-04-05T23:30:33.329Z,23.00
2019-04-05T23:33:01.808Z,23.20
2019-04-05T23:35:30.244Z,23.30
2019-04-05T23:37:58.687Z,23.33
2019-04-05T23:40:27.218Z,23.07
2019-04-05T23:42:55.760Z,22.10
2019-04-05T23:45:24.214Z,22.93
2019-04-05T23:47:52.647Z,22.43
2019-04-05T23:50:21.114Z,22.30
2019-04-05T23:52:49.555Z,24.77
2019-04-05T23:55:18.026Z,24.87
2019-04-05T23:57:46.459Z,23.13
